Time;durP1;ratioP1;P1;durP2;ratioP2;P2;SDS_P1;SDS_P2;PMS_P1;PMS_P2;Temp;Humidity;BMP_temperature;BMP_pressure;BME280_temperature;BME280_humidity;BME280_pressure;Samples;Min_cycle;Max_cycle;Signal;HPM_P1;HPM_P2
2023/08/25 00:02:19;;;;;;;5.10;3.97;;;19.00;99.90;;;;;;5059834;28;20671;-80
2023/08/25 00:04:46;;;;;;;6.77;3.93;;;19.00;99.90;;;;;;5060983;28;20225;-80
2023/08/25 00:07:11;;;;;;;5.30;3.80;;;19.00;99.90;;;;;;5070921;28;20187;-80
2023/08/25 00:09:37;;;;;;;5.80;4.10;;;19.00;99.90;;;;;;5067078;28;20640;-79
2023/08/25 00:12:03;;;;;;;5.33;4.17;;;19.00;99.90;;;;;;5059139;28;20206;-79
2023/08/25 00:14:28;;;;;;;8.67;4.07;;;19.00;99.90;;;;;;5060284;28;20175;-80
2023/08/25 00:16:54;;;;;;;7.07;4.50;;;19.00;99.90;;;;;;5054912;28;20659;-79
2023/08/25 00:19:20;;;;;;;11.37;4.53;;;19.00;99.90;;;;;;5059537;28;20179;-80
2023/08/25 00:21:45;;;;;;;5.23;4.23;;;19.10;99.90;;;;;;5058681;28;20199;-80
2023/08/25 00:24:11;;;;;;;8.03;5.03;;;19.20;99.90;;;;;;5058811;28;20342;-79
2023/08/25 00:26:37;;;;;;;9.73;4.70;;;19.00;99.90;;;;;;5059140;28;20175;-79
2023/08/25 00:29:03;;;;;;;8.17;4.30;;;19.00;99.90;;;;;;5058543;28;20192;-79
2023/08/25 00:31:29;;;;;;;6.87;4.50;;;19.00;99.90;;;;;;5058459;28;20195;-80
2023/08/25 00:33:54;;;;;;;8.23;5.00;;;19.10;99.90;;;;;;5045620;28;20188;-80
2023/08/25 00:36:20;;;;;;;11.20;5.03;;;19.00;99.90;;;;;;5038701;28;20188;-80
2023/08/25 00:38:46;;;;;;;8.03;5.23;;;19.00;99.90;;;;;;5036959;28;20291;-79
2023/08/25 00:41:11;;;;;;;10.13;4.80;;;19.00;99.90;;;;;;5036544;28;20223;-79
2023/08/25 00:43:38;;;;;;;6.90;4.77;;;19.00;99.90;;;;;;5039737;28;20208;-80
2023/08/25 00:46:04;;;;;;;7.17;4.67;;;19.00;99.90;;;;;;5038507;28;20168;-80
2023/08/25 00:48:30;;;;;;;8.83;4.60;;;19.00;99.90;;;;;;5039319;28;20596;-79
2023/08/25 00:50:55;;;;;;;8.63;4.80;;;19.00;99.90;;;;;;5037980;28;20176;-80
2023/08/25 00:53:22;;;;;;;8.90;4.43;;;19.10;99.90;;;;;;5038637;28;20194;-80
2023/08/25 00:55:48;;;;;;;7.73;4.57;;;19.00;99.90;;;;;;5037539;28;20771;-79
2023/08/25 00:58:16;;;;;;;8.73;4.63;;;19.00;99.90;;;;;;5047533;28;20195;-80
2023/08/25 01:00:44;;;;;;;8.70;4.83;;;19.00;99.90;;;;;;5057167;28;20245;-79
2023/08/25 01:03:10;;;;;;;8.53;4.00;;;19.00;99.90;;;;;;5057208;28;20227;-79
2023/08/25 01:05:35;;;;;;;7.47;4.30;;;19.10;99.90;;;;;;5056269;28;20175;-80
2023/08/25 01:08:01;;;;;;;5.77;4.47;;;19.10;99.90;;;;;;5057704;28;20176;-80
2023/08/25 01:10:42;;;;;;;7.23;3.93;;;19.00;99.90;;;;;;5057384;28;20270;-79
2023/08/25 01:13:16;;;;;;;6.87;3.77;;;18.90;99.90;;;;;;5057944;28;20179;-80
2023/08/25 01:15:46;;;;;;;6.27;3.70;;;18.80;99.90;;;;;;5038524;28;20253;-80
2023/08/25 01:18:17;;;;;;;12.77;4.50;;;18.90;99.90;;;;;;5037594;28;20176;-80
2023/08/25 01:20:46;;;;;;;6.43;4.40;;;18.90;99.90;;;;;;5037493;28;20203;-80
2023/08/25 01:23:35;;;;;;;4.70;3.80;;;18.90;99.90;;;;;;5037654;28;20203;-80
2023/08/25 01:26:02;;;;;;;5.17;3.60;;;18.90;99.90;;;;;;5037424;28;20532;-79
2023/08/25 01:28:28;;;;;;;5.73;3.70;;;18.90;99.90;;;;;;5037245;28;20652;-80
2023/08/25 01:30:56;;;;;;;9.70;4.07;;;18.90;99.90;;;;;;5043966;28;20190;-79
2023/08/25 01:33:32;;;;;;;5.07;3.83;;;18.90;99.90;;;;;;5057612;28;20168;-80
2023/08/25 01:36:05;;;;;;;6.10;4.30;;;18.80;99.90;;;;;;5057393;28;20175;-79
2023/08/25 01:38:43;;;;;;;6.10;3.70;;;18.80;99.90;;;;;;5057114;28;20214;-79
2023/08/25 01:41:22;;;;;;;6.50;3.87;;;18.80;99.90;;;;;;5056683;28;20249;-78
2023/08/25 01:43:51;;;;;;;5.87;3.53;;;18.80;99.90;;;;;;5056426;28;20270;-79
2023/08/25 01:46:18;;;;;;;8.10;4.37;;;18.80;99.90;;;;;;5043075;28;20696;-79
2023/08/25 01:48:47;;;;;;;7.87;4.00;;;18.70;99.90;;;;;;5052922;28;20187;-79
2023/08/25 01:51:13;;;;;;;6.00;3.67;;;18.70;99.90;;;;;;5057444;28;20659;-80
2023/08/25 01:53:41;;;;;;;4.47;3.40;;;18.90;99.90;;;;;;5057218;28;20180;-79
2023/08/25 01:56:07;;;;;;;10.03;3.60;;;18.60;99.90;;;;;;5057295;28;20206;-80
2023/08/25 01:58:32;;;;;;;8.77;4.20;;;18.70;99.90;;;;;;5055138;28;20558;-80
2023/08/25 02:00:58;;;;;;;9.43;4.00;;;18.70;99.90;;;;;;5052234;28;20618;-80
2023/08/25 02:03:23;;;;;;;7.83;4.40;;;18.70;99.90;;;;;;5039987;28;20564;-80
2023/08/25 02:05:49;;;;;;;7.60;3.83;;;18.70;99.90;;;;;;5037847;28;20172;-79
2023/08/25 02:08:15;;;;;;;5.67;4.20;;;18.60;99.90;;;;;;5040890;28;20198;-80
2023/08/25 02:10:40;;;;;;;10.50;4.33;;;18.60;99.90;;;;;;5041447;28;20173;-79
2023/08/25 02:13:06;;;;;;;7.43;3.93;;;18.60;99.90;;;;;;5043329;28;20207;-79
2023/08/25 02:15:31;;;;;;;6.17;3.97;;;18.60;99.90;;;;;;5045835;28;20206;-80
2023/08/25 02:17:57;;;;;;;9.90;4.40;;;18.50;99.90;;;;;;5047406;28;20187;-80
2023/08/25 02:20:23;;;;;;;5.47;4.07;;;18.40;99.90;;;;;;5056584;28;20631;-80
2023/08/25 02:22:48;;;;;;;10.20;4.00;;;18.70;99.90;;;;;;5056173;28;20196;-80
2023/08/25 02:25:14;;;;;;;6.27;4.10;;;18.50;99.90;;;;;;5056324;28;20183;-79
2023/08/25 02:27:40;;;;;;;4.60;4.07;;;18.50;99.90;;;;;;5055629;28;20589;-80
2023/08/25 02:30:06;;;;;;;6.40;4.30;;;18.40;99.90;;;;;;5055811;28;20184;-79
2023/08/25 02:32:31;;;;;;;7.27;4.17;;;18.40;99.90;;;;;;5048937;28;20206;-80
2023/08/25 02:34:57;;;;;;;9.63;4.10;;;18.50;99.90;;;;;;5036004;28;20204;-80
2023/08/25 02:37:23;;;;;;;6.40;4.03;;;18.40;99.90;;;;;;5036300;28;20467;-79
2023/08/25 02:39:48;;;;;;;9.67;3.90;;;18.40;99.90;;;;;;5036108;28;20259;-79
2023/08/25 02:42:14;;;;;;;7.50;4.33;;;18.40;99.90;;;;;;5036195;28;20232;-79
2023/08/25 02:44:39;;;;;;;11.70;3.87;;;18.30;99.90;;;;;;5035838;28;20242;-80
2023/08/25 02:47:05;;;;;;;8.50;3.77;;;18.20;99.90;;;;;;5036054;28;20172;-79
2023/08/25 02:49:31;;;;;;;10.33;4.10;;;18.30;99.90;;;;;;5035454;28;20214;-79
2023/08/25 02:51:56;;;;;;;7.07;2.80;;;18.40;99.90;;;;;;5035852;28;20567;-79
2023/08/25 02:54:25;;;;;;;5.67;2.83;;;18.30;99.90;;;;;;5035830;28;20179;-79
2023/08/25 02:56:51;;;;;;;6.93;3.77;;;18.20;99.90;;;;;;5036151;28;20181;-79
2023/08/25 02:59:16;;;;;;;10.20;3.87;;;18.20;99.90;;;;;;5035440;28;20226;-80
2023/08/25 03:01:42;;;;;;;6.80;3.20;;;18.30;99.90;;;;;;5035247;28;20203;-80
2023/08/25 03:04:07;;;;;;;7.03;3.50;;;18.30;99.90;;;;;;5034828;28;20195;-79
2023/08/25 03:06:33;;;;;;;8.37;3.47;;;18.20;99.90;;;;;;5044988;28;20201;-79
2023/08/25 03:08:59;;;;;;;6.70;3.50;;;18.10;99.90;;;;;;5055205;28;20631;-79
2023/08/25 03:11:25;;;;;;;12.27;3.37;;;18.10;99.90;;;;;;5054600;28;20569;-80
2023/08/25 03:13:50;;;;;;;6.60;3.40;;;18.10;99.90;;;;;;5054098;28;20270;-80
2023/08/25 03:16:16;;;;;;;5.50;3.53;;;17.90;99.90;;;;;;5055045;28;20175;-80
2023/08/25 03:18:41;;;;;;;5.27;3.80;;;18.00;99.90;;;;;;5053675;28;20266;-80
2023/08/25 03:21:07;;;;;;;4.20;3.53;;;18.00;99.90;;;;;;5054621;28;20206;-80
2023/08/25 03:23:35;;;;;;;8.73;3.60;;;18.00;99.90;;;;;;5036094;28;20207;-79
2023/08/25 03:26:02;;;;;;;9.43;3.47;;;18.00;99.90;;;;;;5034007;28;20655;-79
2023/08/25 03:28:28;;;;;;;8.47;3.87;;;17.90;99.90;;;;;;5033593;28;20198;-79
2023/08/25 03:30:53;;;;;;;11.87;4.13;;;17.90;99.90;;;;;;5035022;28;20172;-80
2023/08/25 03:33:19;;;;;;;9.07;3.90;;;17.80;99.90;;;;;;5033797;28;20176;-79
2023/08/25 03:35:45;;;;;;;5.73;3.43;;;17.90;99.90;;;;;;5034445;28;20184;-80
2023/08/25 03:38:10;;;;;;;6.60;4.10;;;17.90;99.90;;;;;;5034422;28;20273;-79
2023/08/25 03:40:36;;;;;;;9.27;3.60;;;17.80;99.90;;;;;;5034688;28;20230;-80
2023/08/25 03:43:01;;;;;;;6.53;3.60;;;17.80;99.90;;;;;;5032879;28;20228;-79
2023/08/25 03:45:27;;;;;;;7.10;3.50;;;17.80;99.90;;;;;;5034664;28;20181;-79
2023/08/25 03:47:52;;;;;;;7.73;3.27;;;17.80;99.90;;;;;;5034397;28;20507;-79
2023/08/25 03:50:18;;;;;;;8.63;4.00;;;17.70;99.90;;;;;;5035029;28;20179;-80
2023/08/25 03:52:44;;;;;;;8.07;4.10;;;17.80;99.90;;;;;;5034697;28;20283;-80
2023/08/25 03:55:10;;;;;;;6.90;3.37;;;17.70;99.90;;;;;;5034711;28;20180;-79
2023/08/25 03:57:35;;;;;;;6.13;3.70;;;17.60;99.90;;;;;;5034792;28;20176;-80
2023/08/25 04:00:01;;;;;;;6.73;3.80;;;17.60;99.90;;;;;;5041944;28;20210;-80
2023/08/25 04:02:27;;;;;;;8.70;3.53;;;17.60;99.90;;;;;;5054932;28;20214;-80
2023/08/25 04:04:52;;;;;;;4.37;3.60;;;17.60;99.90;;;;;;5055327;28;20214;-80
2023/08/25 04:07:18;;;;;;;7.50;3.83;;;17.60;99.90;;;;;;5055672;28;20176;-79
2023/08/25 04:09:44;;;;;;;5.10;3.47;;;17.50;99.90;;;;;;5054335;28;20274;-80
2023/08/25 04:12:09;;;;;;;7.77;3.53;;;17.50;99.90;;;;;;5054879;28;20183;-79
2023/08/25 04:14:35;;;;;;;10.33;3.67;;;17.40;99.90;;;;;;5055115;28;20176;-80
2023/08/25 04:17:00;;;;;;;8.87;3.67;;;17.40;99.90;;;;;;5053355;28;20183;-80
2023/08/25 04:19:26;;;;;;;8.97;3.63;;;17.40;99.90;;;;;;5055303;28;20183;-80
2023/08/25 04:21:52;;;;;;;9.60;3.10;;;17.50;99.90;;;;;;5063146;28;20270;-80
2023/08/25 04:24:18;;;;;;;4.33;3.40;;;17.30;99.90;;;;;;5069465;28;20195;-79
2023/08/25 04:26:44;;;;;;;6.33;3.40;;;17.30;99.90;;;;;;5074453;28;20231;-79
2023/08/25 04:29:09;;;;;;;7.27;3.43;;;17.20;99.90;;;;;;5064900;28;20279;-80
2023/08/25 04:31:36;;;;;;;7.03;3.50;;;17.30;99.90;;;;;;5058366;28;20203;-79
2023/08/25 04:34:01;;;;;;;5.03;3.47;;;17.20;99.90;;;;;;5041545;28;20330;-79
2023/08/25 04:36:27;;;;;;;7.17;3.63;;;17.20;99.90;;;;;;5037967;28;20203;-79
2023/08/25 04:38:52;;;;;;;5.30;3.30;;;17.20;99.90;;;;;;5038102;28;20660;-79
2023/08/25 04:41:18;;;;;;;5.10;3.20;;;17.20;99.90;;;;;;5045474;28;20235;-79
2023/08/25 04:43:44;;;;;;;4.17;3.20;;;17.10;99.90;;;;;;5057708;28;20223;-79
2023/08/25 04:46:11;;;;;;;6.37;2.83;;;17.10;99.90;;;;;;5057506;28;20524;-79
2023/08/25 04:48:36;;;;;;;7.00;2.90;;;17.10;99.90;;;;;;5056227;28;20230;-79
2023/08/25 04:51:02;;;;;;;7.20;3.30;;;17.10;99.90;;;;;;5038840;28;20208;-79
2023/08/25 04:53:28;;;;;;;7.00;3.33;;;17.10;99.90;;;;;;5037507;28;20178;-79
2023/08/25 04:55:53;;;;;;;6.30;3.40;;;17.20;99.90;;;;;;5037515;28;20176;-79
2023/08/25 04:58:19;;;;;;;6.13;2.80;;;17.00;99.90;;;;;;5037441;28;20183;-79
2023/08/25 05:00:50;;;;;;;7.27;3.30;;;17.10;99.90;;;;;;5035998;28;20210;-79
2023/08/25 05:03:16;;;;;;;8.30;2.97;;;17.10;99.90;;;;;;5038008;28;20260;-79
2023/08/25 05:05:41;;;;;;;8.37;3.20;;;17.10;99.90;;;;;;5037038;28;20169;-79
2023/08/25 05:08:07;;;;;;;6.97;2.70;;;17.10;99.90;;;;;;5035746;28;20263;-79
2023/08/25 05:10:33;;;;;;;5.10;3.00;;;17.10;99.90;;;;;;5037303;28;20180;-79
2023/08/25 05:12:59;;;;;;;6.93;3.37;;;17.10;99.90;;;;;;5037104;28;20207;-79
2023/08/25 05:15:25;;;;;;;5.83;3.00;;;17.10;99.90;;;;;;5037263;28;20632;-79
2023/08/25 05:17:50;;;;;;;6.53;3.10;;;17.10;99.90;;;;;;5036766;28;20552;-79
2023/08/25 05:20:19;;;;;;;10.70;3.10;;;17.10;99.90;;;;;;5037792;28;20684;-79
2023/08/25 05:22:44;;;;;;;5.63;3.07;;;17.10;99.90;;;;;;5037311;28;20664;-79
2023/08/25 05:25:12;;;;;;;7.53;3.03;;;17.00;99.90;;;;;;5037614;28;20287;-79
2023/08/25 05:27:37;;;;;;;9.23;2.70;;;17.10;99.90;;;;;;5037270;28;20165;-79
2023/08/25 05:30:04;;;;;;;5.13;2.43;;;17.10;99.90;;;;;;5037052;28;20175;-79
2023/08/25 05:32:29;;;;;;;4.70;2.83;;;17.00;99.90;;;;;;5037139;28;20215;-79
2023/08/25 05:34:55;;;;;;;4.70;2.90;;;17.00;99.90;;;;;;5037423;28;20168;-80
2023/08/25 05:37:20;;;;;;;4.73;2.80;;;17.00;99.90;;;;;;5036442;28;20238;-79
2023/08/25 05:39:46;;;;;;;7.30;3.07;;;17.10;99.90;;;;;;5036844;28;20195;-79
2023/08/25 05:42:12;;;;;;;3.63;2.87;;;17.10;99.90;;;;;;5035349;28;20262;-79
2023/08/25 05:44:37;;;;;;;9.10;2.90;;;17.10;99.90;;;;;;5036753;28;20196;-80
2023/08/25 05:47:03;;;;;;;7.17;3.00;;;17.10;99.90;;;;;;5036578;28;20263;-79
2023/08/25 05:49:29;;;;;;;7.50;2.83;;;17.10;99.90;;;;;;5036355;28;20206;-81
2023/08/25 05:51:54;;;;;;;5.80;2.77;;;17.10;99.90;;;;;;5034685;28;20633;-81
2023/08/25 05:54:20;;;;;;;4.30;3.03;;;17.10;99.90;;;;;;5036310;28;20212;-79
2023/08/25 05:56:45;;;;;;;10.23;3.33;;;17.20;99.90;;;;;;5035945;28;20186;-79
2023/08/25 05:59:11;;;;;;;7.93;3.53;;;17.20;99.90;;;;;;5035771;28;20203;-79
2023/08/25 06:01:37;;;;;;;5.60;3.17;;;17.30;99.90;;;;;;5055518;28;20198;-78
2023/08/25 06:04:03;;;;;;;2.97;2.67;;;17.30;99.90;;;;;;5055924;28;20256;-79
2023/08/25 06:06:30;;;;;;;5.27;3.40;;;17.30;99.90;;;;;;5055238;28;20164;-78
2023/08/25 06:08:56;;;;;;;6.10;3.50;;;17.30;99.90;;;;;;5055986;28;20624;-79
2023/08/25 06:11:22;;;;;;;7.17;3.50;;;17.20;99.90;;;;;;5053972;28;20567;-79
2023/08/25 06:13:48;;;;;;;5.17;3.27;;;17.40;99.90;;;;;;5053822;28;20178;-79
2023/08/25 06:16:14;;;;;;;6.47;3.27;;;17.40;99.90;;;;;;5046335;28;20629;-79
2023/08/25 06:18:40;;;;;;;12.03;3.80;;;17.40;99.90;;;;;;5052466;28;20187;-79
2023/08/25 06:21:06;;;;;;;7.77;4.13;;;17.50;99.90;;;;;;5053695;28;20269;-79
2023/08/25 06:23:31;;;;;;;5.67;4.77;;;17.60;99.90;;;;;;5056200;28;20191;-79
2023/08/25 06:25:59;;;;;;;8.30;4.80;;;17.60;99.90;;;;;;5037537;28;20362;-79
2023/08/25 06:28:24;;;;;;;8.27;4.77;;;17.70;99.90;;;;;;5034767;28;20264;-79
2023/08/25 06:30:50;;;;;;;7.77;6.10;;;17.90;99.90;;;;;;5036185;28;20210;-79
2023/08/25 06:33:16;;;;;;;10.10;6.30;;;17.80;99.90;;;;;;5035528;28;20192;-79
2023/08/25 06:35:42;;;;;;;7.70;5.47;;;17.90;99.90;;;;;;5035774;28;20220;-79
2023/08/25 06:38:08;;;;;;;6.57;5.70;;;18.00;99.90;;;;;;5035142;28;20180;-79
2023/08/25 06:40:34;;;;;;;11.20;6.20;;;18.10;99.90;;;;;;5035837;28;20184;-80
2023/08/25 06:43:01;;;;;;;9.27;6.00;;;18.10;99.90;;;;;;5045968;28;20200;-79
2023/08/25 06:45:27;;;;;;;8.37;6.17;;;18.40;99.90;;;;;;5053171;28;21097;-79
2023/08/25 06:47:54;;;;;;;7.27;5.97;;;18.40;99.90;;;;;;5055014;28;20259;-79
2023/08/25 06:50:20;;;;;;;10.00;6.80;;;18.50;99.90;;;;;;5055576;28;20176;-79
2023/08/25 06:52:46;;;;;;;10.33;6.23;;;18.50;99.90;;;;;;5053417;28;20251;-79
2023/08/25 06:55:11;;;;;;;9.97;6.33;;;18.60;99.90;;;;;;5055142;28;20179;-79
2023/08/25 06:57:37;;;;;;;6.00;5.37;;;18.60;99.90;;;;;;5055154;28;20171;-80
2023/08/25 07:00:05;;;;;;;8.90;5.17;;;18.70;99.90;;;;;;5054154;28;20313;-79
2023/08/25 07:02:30;;;;;;;5.70;4.10;;;18.70;99.90;;;;;;5047224;28;20575;-79
2023/08/25 07:04:56;;;;;;;10.23;4.80;;;18.80;99.90;;;;;;5040786;28;20196;-79
2023/08/25 07:07:25;;;;;;;5.80;3.97;;;18.70;99.90;;;;;;5039443;28;20704;-79
2023/08/25 07:09:51;;;;;;;9.17;4.63;;;18.80;99.90;;;;;;5042051;28;20164;-79
2023/08/25 07:12:17;;;;;;;5.97;4.50;;;18.80;99.90;;;;;;5038111;28;20226;-79
2023/08/25 07:14:43;;;;;;;6.70;4.60;;;18.80;99.90;;;;;;5051134;28;20184;-79
2023/08/25 07:17:09;;;;;;;7.87;4.00;;;18.80;99.90;;;;;;5044569;28;20222;-79
2023/08/25 07:19:34;;;;;;;5.83;4.13;;;18.90;99.90;;;;;;5065103;28;20182;-79
2023/08/25 07:22:00;;;;;;;7.97;4.97;;;18.80;99.90;;;;;;5074678;28;20206;-79
2023/08/25 07:24:25;;;;;;;8.30;5.40;;;18.90;99.90;;;;;;5065668;28;20195;-79
2023/08/25 07:26:51;;;;;;;9.03;5.60;;;18.80;99.90;;;;;;5043535;28;20183;-80
2023/08/25 07:29:17;;;;;;;16.20;5.70;;;18.90;99.90;;;;;;5049038;28;20204;-81
2023/08/25 07:31:43;;;;;;;6.67;5.73;;;18.90;99.90;;;;;;5034128;28;20188;-82
2023/08/25 07:34:08;;;;;;;10.17;6.17;;;18.90;99.90;;;;;;5033711;28;20172;-81
2023/08/25 07:36:34;;;;;;;14.90;6.93;;;18.80;99.90;;;;;;5034355;28;20176;-82
2023/08/25 07:38:59;;;;;;;12.10;7.63;;;18.90;99.90;;;;;;5032278;28;20352;-81
2023/08/25 07:41:25;;;;;;;10.77;5.97;;;18.90;99.90;;;;;;5033901;28;20568;-82
2023/08/25 07:43:51;;;;;;;11.27;6.97;;;18.90;99.90;;;;;;5033287;28;20592;-82
2023/08/25 07:46:16;;;;;;;13.33;6.87;;;18.80;99.90;;;;;;5033993;28;20195;-82
2023/08/25 07:48:42;;;;;;;10.93;7.00;;;18.90;99.90;;;;;;5035105;28;20180;-83
2023/08/25 07:51:08;;;;;;;11.87;6.23;;;18.90;99.90;;;;;;5034023;28;20283;-81
2023/08/25 07:53:33;;;;;;;9.87;6.40;;;18.80;99.90;;;;;;5034418;28;20198;-81
2023/08/25 07:55:59;;;;;;;9.87;6.57;;;18.80;99.90;;;;;;5034493;28;20172;-81
2023/08/25 07:58:24;;;;;;;13.87;6.83;;;18.70;99.90;;;;;;5034307;28;20180;-82
2023/08/25 08:00:50;;;;;;;8.80;7.90;;;18.80;99.90;;;;;;5036991;28;20192;-82
2023/08/25 08:03:16;;;;;;;16.43;7.67;;;19.00;99.90;;;;;;5038197;28;20270;-81
2023/08/25 08:05:42;;;;;;;13.63;8.20;;;18.80;99.90;;;;;;5038471;28;20270;-81
2023/08/25 08:08:09;;;;;;;11.73;7.83;;;18.80;99.90;;;;;;5038164;28;20168;-82
2023/08/25 08:10:35;;;;;;;11.57;8.50;;;18.70;99.90;;;;;;5038197;28;20608;-81
2023/08/25 08:13:02;;;;;;;11.87;8.30;;;18.90;99.90;;;;;;5037945;28;20184;-81
2023/08/25 08:15:27;;;;;;;14.63;9.30;;;18.80;99.90;;;;;;5038004;28;20175;-81
2023/08/25 08:17:53;;;;;;;13.80;8.93;;;18.70;99.90;;;;;;5053421;28;20192;-84
2023/08/25 08:20:18;;;;;;;17.13;9.53;;;18.70;99.90;;;;;;5038695;28;20187;-82
2023/08/25 08:22:45;;;;;;;12.30;9.80;;;18.80;99.90;;;;;;5053617;28;20200;-82
2023/08/25 08:25:14;;;;;;;15.27;10.20;;;18.80;99.90;;;;;;5038571;28;20204;-82
2023/08/25 08:27:41;;;;;;;14.13;10.57;;;18.70;99.90;;;;;;5038796;28;20665;-82
2023/08/25 08:30:07;;;;;;;14.43;11.40;;;18.80;99.90;;;;;;5038741;28;20184;-83
2023/08/25 08:32:37;;;;;;;13.87;11.23;;;18.80;99.90;;;;;;5054289;28;20220;-83
2023/08/25 08:35:07;;;;;;;15.43;10.87;;;18.70;99.90;;;;;;5053966;28;20185;-82
2023/08/25 08:37:33;;;;;;;14.37;11.33;;;18.70;99.90;;;;;;5038094;28;20160;-82
2023/08/25 08:40:00;;;;;;;12.17;10.73;;;18.80;99.90;;;;;;5038756;28;20231;-82
2023/08/25 08:42:28;;;;;;;14.03;11.03;;;18.80;99.90;;;;;;5053764;28;20214;-82
2023/08/25 08:44:57;;;;;;;15.20;10.70;;;18.80;99.90;;;;;;5053758;28;20204;-82
2023/08/25 08:47:23;;;;;;;18.17;10.47;;;18.80;99.90;;;;;;5057728;28;20268;-82
2023/08/25 08:49:49;;;;;;;11.53;10.33;;;18.80;99.90;;;;;;5063297;28;20183;-82
2023/08/25 08:52:16;;;;;;;15.07;10.70;;;18.80;99.90;;;;;;5049758;28;20200;-82
2023/08/25 08:54:43;;;;;;;16.03;11.03;;;18.80;99.90;;;;;;5074936;28;20180;-81
2023/08/25 08:57:09;;;;;;;11.93;10.27;;;18.90;99.90;;;;;;5075089;28;20172;-82
2023/08/25 08:59:35;;;;;;;15.13;10.77;;;18.90;99.90;;;;;;5039231;28;20275;-82
2023/08/25 09:02:03;;;;;;;12.67;10.17;;;18.90;99.90;;;;;;5053495;28;20242;-83
2023/08/25 09:04:29;;;;;;;15.43;9.63;;;19.10;99.90;;;;;;5053504;28;20208;-83
2023/08/25 09:06:57;;;;;;;11.23;9.37;;;19.10;99.90;;;;;;5053662;28;20231;-81
2023/08/25 09:09:23;;;;;;;13.17;9.03;;;19.10;99.90;;;;;;5038008;28;20649;-80
2023/08/25 09:11:50;;;;;;;9.37;7.43;;;19.10;99.90;;;;;;5038001;28;20192;-81
2023/08/25 09:14:27;;;;;;;13.10;7.97;;;19.10;99.90;;;;;;5037232;28;20245;-79
2023/08/25 09:16:59;;;;;;;14.80;8.43;;;19.20;99.90;;;;;;5037830;28;20242;-80
2023/08/25 09:19:29;;;;;;;11.33;7.97;;;18.90;99.90;;;;;;5041063;28;20175;-80
2023/08/25 09:21:55;;;;;;;12.40;7.70;;;19.10;99.90;;;;;;5052980;28;20204;-80
2023/08/25 09:24:22;;;;;;;20.60;9.27;;;19.00;99.90;;;;;;5037371;28;20223;-80
2023/08/25 09:26:49;;;;;;;19.40;7.90;;;19.10;99.90;;;;;;5037347;28;20207;-80
2023/08/25 09:29:14;;;;;;;17.97;8.30;;;19.00;99.90;;;;;;5035736;28;20676;-80
2023/08/25 09:31:41;;;;;;;17.47;6.03;;;19.00;99.90;;;;;;5037237;28;20195;-80
2023/08/25 09:34:09;;;;;;;19.63;6.17;;;19.00;99.90;;;;;;5052017;28;20184;-79
2023/08/25 09:36:55;;;;;;;22.47;7.00;;;19.00;99.90;;;;;;5037097;28;20184;-81
2023/08/25 09:39:22;;;;;;;24.27;6.30;;;18.90;99.90;;;;;;5035545;28;20168;-80
2023/08/25 09:41:48;;;;;;;20.57;6.40;;;19.00;99.90;;;;;;5035680;28;20226;-80
2023/08/25 09:44:15;;;;;;;13.03;5.80;;;18.90;99.90;;;;;;5037292;28;20207;-81
2023/08/25 09:46:42;;;;;;;10.27;5.60;;;19.00;99.90;;;;;;5037777;28;20172;-80
2023/08/25 09:49:11;;;;;;;8.73;5.43;;;18.90;99.90;;;;;;5037156;28;20243;-80
2023/08/25 09:51:48;;;;;;;6.73;5.27;;;18.80;99.90;;;;;;5037308;28;20204;-80
2023/08/25 09:54:16;;;;;;;11.43;6.07;;;18.70;99.90;;;;;;5037112;28;20184;-79
2023/08/25 09:56:43;;;;;;;15.90;5.30;;;18.80;99.90;;;;;;5036879;28;20584;-80
2023/08/25 09:59:11;;;;;;;16.60;6.17;;;18.80;99.90;;;;;;5035885;28;20176;-80
2023/08/25 10:01:44;;;;;;;30.27;7.23;;;18.90;99.90;;;;;;5036700;28;20204;-80
2023/08/25 10:04:11;;;;;;;16.97;5.50;;;18.80;99.90;;;;;;5053685;28;20599;-81
2023/08/25 10:06:37;;;;;;;8.77;5.90;;;18.70;99.90;;;;;;5035711;28;20173;-81
2023/08/25 10:09:04;;;;;;;11.23;4.80;;;18.80;99.90;;;;;;5052823;28;20173;-82
2023/08/25 10:11:35;;;;;;;18.57;6.00;;;18.80;99.90;;;;;;5037380;28;20257;-81
2023/08/25 10:14:03;;;;;;;14.43;5.30;;;18.80;99.90;;;;;;5036839;28;20176;-81
2023/08/25 10:16:29;;;;;;;18.57;6.07;;;18.70;99.90;;;;;;5036499;28;20551;-81
2023/08/25 10:18:57;;;;;;;22.23;5.63;;;18.80;99.90;;;;;;5037112;28;20188;-82
2023/08/25 10:21:24;;;;;;;9.87;4.73;;;18.60;99.90;;;;;;5035646;28;20262;-80
2023/08/25 10:23:53;;;;;;;10.30;4.53;;;18.70;99.90;;;;;;5037020;28;20691;-81
2023/08/25 10:26:21;;;;;;;11.30;4.53;;;18.70;99.90;;;;;;5036567;28;20168;-80
2023/08/25 10:28:47;;;;;;;7.33;3.90;;;18.70;99.90;;;;;;5051118;28;20188;-80
2023/08/25 10:31:13;;;;;;;6.60;3.07;;;18.60;99.90;;;;;;5036325;28;20567;-81
2023/08/25 10:33:49;;;;;;;8.90;3.60;;;18.80;99.90;;;;;;5035847;28;20168;-80
2023/08/25 10:36:18;;;;;;;6.80;3.43;;;18.60;99.90;;;;;;5035938;28;20164;-81
2023/08/25 10:39:06;;;;;;;9.87;3.70;;;18.60;99.90;;;;;;5035666;28;20184;-80
2023/08/25 10:41:43;;;;;;;10.90;4.20;;;18.60;99.90;;;;;;5035247;28;20235;-80
2023/08/25 10:44:18;;;;;;;8.27;4.47;;;18.60;99.90;;;;;;5051843;28;20200;-80
2023/08/25 10:46:45;;;;;;;12.33;4.70;;;18.60;99.90;;;;;;5036029;28;20239;-82
2023/08/25 10:49:12;;;;;;;7.27;4.90;;;18.50;99.90;;;;;;5036141;28;20168;-80
2023/08/25 10:51:38;;;;;;;7.97;5.27;;;18.60;99.90;;;;;;5036801;28;20188;-81
2023/08/25 10:54:04;;;;;;;10.03;5.50;;;18.60;99.90;;;;;;5054237;28;20176;-81
2023/08/25 10:56:30;;;;;;;8.10;5.57;;;18.70;99.90;;;;;;5043614;28;20184;-79
2023/08/25 10:59:02;;;;;;;9.60;6.17;;;18.60;99.90;;;;;;5041467;28;20176;-79
2023/08/25 11:01:33;;;;;;;11.57;5.83;;;18.70;99.90;;;;;;5042155;28;20275;-79
2023/08/25 11:04:04;;;;;;;10.63;5.80;;;18.70;99.90;;;;;;5038596;28;20192;-79
2023/08/25 11:06:47;;;;;;;7.57;5.00;;;18.70;99.90;;;;;;5034015;28;20249;-80
2023/08/25 11:09:18;;;;;;;7.40;4.87;;;18.70;99.90;;;;;;5035108;28;20612;-80
2023/08/25 11:11:45;;;;;;;10.77;5.30;;;18.70;99.90;;;;;;5034896;28;20191;-80
2023/08/25 11:14:12;;;;;;;7.10;4.33;;;18.80;99.90;;;;;;5035340;28;20263;-80
2023/08/25 11:16:40;;;;;;;8.87;4.77;;;18.70;99.90;;;;;;5035255;28;20283;-80
2023/08/25 11:19:09;;;;;;;9.97;5.13;;;18.80;99.90;;;;;;5035194;28;20172;-80
2023/08/25 11:21:35;;;;;;;5.77;4.83;;;18.90;99.90;;;;;;5051084;28;20200;-80
2023/08/25 11:24:01;;;;;;;8.33;5.10;;;18.90;99.90;;;;;;5050607;28;20640;-80
2023/08/25 11:26:26;;;;;;;9.07;4.93;;;18.90;99.90;;;;;;5035147;28;20171;-80
2023/08/25 11:28:53;;;;;;;6.77;5.20;;;18.90;99.90;;;;;;5034842;28;20180;-80
2023/08/25 11:31:23;;;;;;;13.00;4.80;;;19.10;99.90;;;;;;5034946;28;20192;-80
2023/08/25 11:33:52;;;;;;;8.50;5.00;;;19.10;99.90;;;;;;5050409;28;20652;-80
2023/08/25 11:36:21;;;;;;;7.93;4.97;;;19.10;99.90;;;;;;5034766;28;20176;-80
2023/08/25 11:38:49;;;;;;;6.50;4.67;;;19.20;99.90;;;;;;5035148;28;20173;-80
2023/08/25 11:41:15;;;;;;;6.67;4.90;;;19.10;99.90;;;;;;5035148;28;20192;-80
2023/08/25 11:43:41;;;;;;;6.43;4.87;;;19.20;99.90;;;;;;5034980;28;20716;-80
2023/08/25 11:46:07;;;;;;;9.53;4.83;;;19.20;99.90;;;;;;5035769;28;20168;-80
2023/08/25 11:48:36;;;;;;;5.07;3.97;;;19.20;99.90;;;;;;5035306;28;20172;-81
2023/08/25 11:51:02;;;;;;;8.00;4.60;;;19.20;99.90;;;;;;5035359;28;20640;-80
2023/08/25 11:53:29;;;;;;;5.63;4.30;;;19.20;99.90;;;;;;5051277;28;20267;-80
2023/08/25 11:55:59;;;;;;;7.30;4.63;;;19.30;99.90;;;;;;5035231;28;20171;-80
2023/08/25 11:58:30;;;;;;;5.83;4.50;;;19.50;99.90;;;;;;5050842;28;20283;-80
2023/08/25 12:00:59;;;;;;;6.10;4.63;;;19.60;99.90;;;;;;5034965;28;20168;-80
2023/08/25 12:03:25;;;;;;;5.70;4.87;;;19.60;99.90;;;;;;5036449;28;20203;-81
2023/08/25 12:05:51;;;;;;;7.03;4.30;;;19.70;99.90;;;;;;5050390;28;20172;-81
2023/08/25 12:08:17;;;;;;;5.00;3.83;;;19.80;99.90;;;;;;5050534;28;20597;-80
2023/08/25 12:10:42;;;;;;;5.73;4.20;;;19.90;99.90;;;;;;5050558;28;20196;-82
2023/08/25 12:13:08;;;;;;;6.63;4.20;;;19.80;99.90;;;;;;5035483;28;20196;-80
2023/08/25 12:15:42;;;;;;;5.87;4.17;;;20.00;99.90;;;;;;5035768;28;20368;-81
2023/08/25 12:18:08;;;;;;;5.47;3.80;;;20.20;99.90;;;;;;5035733;28;20169;-80
2023/08/25 12:20:33;;;;;;;5.83;3.60;;;20.20;99.90;;;;;;5035579;28;20187;-80
2023/08/25 12:23:00;;;;;;;7.93;3.70;;;20.20;99.90;;;;;;5036100;28;20192;-81
2023/08/25 12:25:27;;;;;;;3.93;3.27;;;20.50;99.90;;;;;;5036081;28;20220;-80
2023/08/25 12:27:54;;;;;;;7.70;3.43;;;20.20;99.90;;;;;;5038304;28;20251;-81
2023/08/25 12:30:20;;;;;;;8.07;3.40;;;20.30;99.90;;;;;;5038683;28;20169;-81
2023/08/25 12:32:46;;;;;;;8.73;3.13;;;20.30;99.90;;;;;;5037393;28;20254;-80
2023/08/25 12:35:11;;;;;;;5.37;2.90;;;20.40;99.90;;;;;;5037281;28;20173;-81
2023/08/25 12:37:37;;;;;;;4.40;3.23;;;20.30;99.90;;;;;;5037482;28;20176;-80
2023/08/25 12:40:05;;;;;;;4.83;2.90;;;20.30;99.90;;;;;;5036987;28;20184;-81
2023/08/25 12:42:31;;;;;;;5.30;3.03;;;20.40;99.90;;;;;;5036209;28;20199;-81